Time;durP1;ratioP1;P1;durP2;ratioP2;P2;SDS_P1;SDS_P2;PMS_P1;PMS_P2;Temp;Humidity;BMP_temperature;BMP_pressure;BME280_temperature;BME280_humidity;BME280_pressure;Samples;Min_cycle;Max_cycle;Signal;HPM_P1;HPM_P2
2022/10/05 00:00:12;;;;;;;15.90;10.05;;;15.60;99.90;;;;;;5060811;28;20025;-70
2022/10/05 00:02:38;;;;;;;15.60;9.60;;;15.60;99.90;;;;;;5062451;28;20013;-71
2022/10/05 00:05:31;;;;;;;14.98;9.82;;;15.60;99.90;;;;;;5059249;28;20862;-70
2022/10/05 00:08:09;;;;;;;;;;;15.70;99.90;;;;;;5060185;28;20473;-70
2022/10/05 00:10:35;;;;;;;13.32;9.80;;;15.70;99.90;;;;;;5062652;28;19951;-70
2022/10/05 00:13:00;;;;;;;11.95;9.70;;;15.80;99.90;;;;;;5061928;28;20024;-70
2022/10/05 00:15:26;;;;;;;16.02;9.57;;;15.70;99.90;;;;;;5066305;28;20028;-70
2022/10/05 00:17:52;;;;;;;12.45;8.80;;;15.70;99.90;;;;;;5059340;28;20585;-70
2022/10/05 00:20:21;;;;;;;16.10;9.88;;;15.70;99.90;;;;;;5059193;28;20035;-70
2022/10/05 00:22:48;;;;;;;13.68;9.85;;;15.70;99.90;;;;;;5063175;28;20021;-70
2022/10/05 00:25:19;;;;;;;13.10;10.02;;;15.70;99.90;;;;;;5059932;28;20071;-70
2022/10/05 00:27:58;;;;;;;18.97;10.20;;;15.70;99.90;;;;;;5060245;28;20033;-70
2022/10/05 00:30:29;;;;;;;15.30;9.82;;;15.80;99.90;;;;;;5062602;28;20020;-70
2022/10/05 00:32:55;;;;;;;16.13;10.60;;;15.80;99.90;;;;;;5063453;28;20138;-70
2022/10/05 00:35:20;;;;;;;15.00;9.63;;;15.70;99.90;;;;;;5062488;28;20489;-70
2022/10/05 00:37:51;;;;;;;15.27;10.38;;;15.70;99.90;;;;;;5060000;28;20032;-70
2022/10/05 00:40:39;;;;;;;12.02;9.65;;;15.70;99.90;;;;;;5061163;28;20056;-71
2022/10/05 00:43:19;;;;;;;12.60;9.65;;;15.70;99.90;;;;;;5058358;28;20029;-71
2022/10/05 00:46:06;;;;;;;14.52;9.73;;;15.70;99.90;;;;;;5060688;28;20024;-70
2022/10/05 00:49:08;;;;;;;14.20;9.77;;;15.70;99.90;;;;;;5057022;28;20031;-70
2022/10/05 00:51:38;;;;;;;12.57;9.95;;;15.70;99.90;;;;;;5067637;28;20024;-70
2022/10/05 00:54:24;;;;;;;11.88;8.57;;;15.70;99.90;;;;;;5061302;28;20021;-70
2022/10/05 00:57:27;;;;;;;15.57;9.55;;;15.80;99.90;;;;;;5063216;28;20386;-70
2022/10/05 01:00:04;;;;;;;11.98;8.93;;;15.70;99.90;;;;;;5060666;28;20052;-70
2022/10/05 01:02:52;;;;;;;11.68;9.73;;;15.70;99.90;;;;;;5068981;28;20020;-70
2022/10/05 01:05:41;;;;;;;10.50;9.10;;;15.70;99.90;;;;;;5057966;28;20122;-71
2022/10/05 01:08:30;;;;;;;12.48;8.65;;;15.70;99.90;;;;;;5063064;28;20073;-70
2022/10/05 01:11:06;;;;;;;12.82;8.30;;;15.70;99.90;;;;;;5068724;28;20037;-70
2022/10/05 01:13:41;;;;;;;14.27;8.57;;;15.70;99.90;;;;;;5061756;28;20031;-70
2022/10/05 01:16:34;;;;;;;11.60;7.68;;;15.70;99.90;;;;;;5061548;28;20040;-70
2022/10/05 01:19:31;;;;;;;9.43;7.60;;;15.60;99.90;;;;;;5064888;28;20655;-70
2022/10/05 01:22:09;;;;;;;11.35;7.50;;;15.70;99.90;;;;;;5067964;28;20151;-70
2022/10/05 01:24:55;;;;;;;10.23;7.70;;;15.80;99.90;;;;;;5067338;28;20362;-70
2022/10/05 01:27:41;;;;;;;11.45;7.75;;;15.70;99.90;;;;;;5062443;28;20524;-71
2022/10/05 01:30:14;;;;;;;11.50;7.85;;;15.80;99.90;;;;;;5070167;28;20024;-70
2022/10/05 01:32:47;;;;;;;11.00;7.95;;;15.90;99.90;;;;;;5061007;28;20376;-70
2022/10/05 01:35:22;;;;;;;11.63;7.88;;;15.80;99.90;;;;;;5061224;28;20039;-71
2022/10/05 01:38:05;;;;;;;9.77;8.13;;;15.90;99.90;;;;;;5064129;28;20455;-70
2022/10/05 01:40:54;;;;;;;12.77;8.40;;;15.70;99.90;;;;;;5069989;28;20037;-70
2022/10/05 01:43:40;;;;;;;11.43;8.45;;;15.80;99.90;;;;;;5068182;28;20025;-70
2022/10/05 01:46:23;;;;;;;13.88;8.70;;;15.80;99.90;;;;;;5066847;28;20029;-71
2022/10/05 01:49:10;;;;;;;10.38;8.60;;;15.60;99.90;;;;;;5062649;28;20035;-70
2022/10/05 01:51:58;;;;;;;11.52;8.75;;;15.70;99.90;;;;;;5063346;28;20028;-71
2022/10/05 01:54:48;;;;;;;11.00;8.18;;;15.70;99.90;;;;;;5060834;28;20029;-71
2022/10/05 01:57:33;;;;;;;12.70;9.43;;;15.70;99.90;;;;;;5067903;28;20554;-70
2022/10/05 02:00:10;;;;;;;11.13;8.25;;;15.80;99.90;;;;;;5062666;28;20450;-70
2022/10/05 02:02:44;;;;;;;12.13;8.95;;;15.70;99.90;;;;;;5066548;28;20029;-70
2022/10/05 02:05:28;;;;;;;11.65;9.05;;;15.70;99.90;;;;;;5069529;28;20061;-71
2022/10/05 02:08:07;;;;;;;9.48;8.15;;;15.70;99.90;;;;;;5059588;28;20047;-71
2022/10/05 02:10:37;;;;;;;13.63;8.82;;;15.70;99.90;;;;;;5065882;28;20140;-70
2022/10/05 02:13:13;;;;;;;9.93;8.52;;;15.80;99.90;;;;;;5060581;28;20027;-70
2022/10/05 02:15:46;;;;;;;16.35;9.30;;;15.70;99.90;;;;;;5068354;28;20086;-71
2022/10/05 02:18:19;;;;;;;13.07;8.25;;;15.70;99.90;;;;;;5064591;28;20036;-70
2022/10/05 02:20:45;;;;;;;;;;;15.70;99.90;;;;;;5069472;28;20028;-70
2022/10/05 02:23:17;;;;;;;12.20;9.95;;;15.70;99.90;;;;;;5064685;28;19994;-70
2022/10/05 02:25:45;;;;;;;;;;;15.70;99.90;;;;;;5069722;28;20519;-70
2022/10/05 02:28:36;;;;;;;13.43;8.95;;;15.80;99.90;;;;;;5062275;28;20011;-70
2022/10/05 02:31:12;;;;;;;9.55;8.52;;;15.80;99.90;;;;;;5063643;28;20029;-70
2022/10/05 02:33:39;;;;;;;12.82;8.85;;;15.70;99.90;;;;;;5059626;28;20424;-71
2022/10/05 02:36:15;;;;;;;12.73;8.57;;;15.70;99.90;;;;;;5063881;28;20032;-70
2022/10/05 02:38:47;;;;;;;13.02;8.18;;;15.70;99.90;;;;;;5058183;28;20049;-70
2022/10/05 02:41:24;;;;;;;12.77;9.23;;;15.70;99.90;;;;;;5059274;28;20215;-70
2022/10/05 02:44:05;;;;;;;11.40;8.70;;;15.60;99.90;;;;;;5065141;28;20021;-71
2022/10/05 02:46:52;;;;;;;11.50;8.73;;;15.70;99.90;;;;;;5062984;28;20406;-71
2022/10/05 02:49:36;;;;;;;13.15;9.25;;;15.70;99.90;;;;;;5063742;28;20030;-70
2022/10/05 02:52:05;;;;;;;12.35;9.07;;;15.60;99.90;;;;;;5060417;28;20028;-70
2022/10/05 02:54:34;;;;;;;11.75;9.48;;;15.70;99.90;;;;;;5066363;28;20037;-70
2022/10/05 02:57:03;;;;;;;11.88;8.38;;;15.60;99.90;;;;;;5062620;28;20037;-70
2022/10/05 02:59:54;;;;;;;17.00;8.50;;;15.50;99.90;;;;;;5064033;28;20029;-70
2022/10/05 03:02:34;;;;;;;12.52;8.13;;;15.60;99.90;;;;;;5060958;28;20024;-70
2022/10/05 03:05:24;;;;;;;13.45;9.15;;;15.50;99.90;;;;;;5059009;28;20036;-70
2022/10/05 03:07:55;;;;;;;13.43;9.07;;;15.50;99.90;;;;;;5064713;28;20089;-71
2022/10/05 03:10:34;;;;;;;13.15;9.07;;;15.40;99.90;;;;;;5066420;28;20035;-70
2022/10/05 03:13:21;;;;;;;10.63;9.45;;;15.40;99.90;;;;;;5064698;28;20027;-71
2022/10/05 03:16:22;;;;;;;13.55;10.07;;;15.40;99.90;;;;;;5061452;28;20039;-70
2022/10/05 03:19:05;;;;;;;13.55;10.25;;;15.30;99.90;;;;;;5064769;28;20053;-71
2022/10/05 03:21:57;;;;;;;13.52;9.35;;;15.30;99.90;;;;;;5062426;28;20028;-70
2022/10/05 03:24:52;;;;;;;15.43;9.38;;;15.30;99.90;;;;;;5073307;28;20066;-70
2022/10/05 03:27:27;;;;;;;12.95;9.40;;;15.30;99.90;;;;;;5061264;28;20029;-70
2022/10/05 03:30:06;;;;;;;12.88;9.65;;;15.30;99.90;;;;;;5072611;28;20028;-70
2022/10/05 03:32:59;;;;;;;13.73;9.52;;;15.30;99.90;;;;;;5063212;28;20085;-70
2022/10/05 03:35:43;;;;;;;13.55;9.18;;;15.30;99.90;;;;;;5060198;28;20032;-70
2022/10/05 03:38:38;;;;;;;12.57;9.25;;;15.20;99.90;;;;;;5064301;28;20040;-70
2022/10/05 03:41:46;;;;;;;12.10;9.70;;;15.20;99.90;;;;;;5063686;28;20496;-70
2022/10/05 03:44:18;;;;;;;14.13;9.25;;;15.10;99.90;;;;;;5061974;28;20059;-70
2022/10/05 03:47:10;;;;;;;12.88;9.52;;;15.10;99.90;;;;;;5063724;28;20033;-70
2022/10/05 03:50:03;;;;;;;13.00;8.80;;;15.10;99.90;;;;;;5066643;28;20032;-70
2022/10/05 03:52:40;;;;;;;12.13;9.30;;;15.10;99.90;;;;;;5059021;28;20495;-70
2022/10/05 03:55:32;;;;;;;13.45;9.73;;;15.10;99.90;;;;;;5061793;28;20479;-70
2022/10/05 03:58:05;;;;;;;14.60;9.68;;;15.10;99.90;;;;;;5062041;28;20053;-70
2022/10/05 04:00:32;;;;;;;11.50;9.18;;;15.10;99.90;;;;;;5060934;28;20028;-70
2022/10/05 04:03:15;;;;;;;14.65;9.93;;;15.10;99.90;;;;;;5065570;28;20017;-70
2022/10/05 04:06:01;;;;;;;13.00;9.43;;;15.10;99.90;;;;;;5060980;28;20063;-70
2022/10/05 04:08:53;;;;;;;12.70;8.43;;;15.00;99.90;;;;;;5066376;28;20048;-70
2022/10/05 04:11:28;;;;;;;15.73;10.18;;;14.90;99.90;;;;;;5058872;28;20036;-70
2022/10/05 04:14:01;;;;;;;15.63;9.93;;;14.90;99.90;;;;;;5064277;28;20100;-70
2022/10/05 04:16:53;;;;;;;14.15;8.40;;;14.90;99.90;;;;;;5062180;28;20037;-71
2022/10/05 04:19:40;;;;;;;14.00;9.70;;;14.90;99.90;;;;;;5060988;28;20424;-70
2022/10/05 04:22:20;;;;;;;13.52;9.05;;;15.00;99.90;;;;;;5061043;28;20024;-70
2022/10/05 04:25:01;;;;;;;11.93;9.60;;;15.10;99.90;;;;;;5064950;28;20025;-70
2022/10/05 04:27:51;;;;;;;14.73;9.32;;;15.10;99.90;;;;;;5057988;28;20029;-70
2022/10/05 04:30:19;;;;;;;15.00;10.02;;;15.10;99.90;;;;;;5061158;28;20043;-70
2022/10/05 04:32:51;;;;;;;11.00;8.82;;;15.20;99.90;;;;;;5060366;28;20515;-70
2022/10/05 04:35:32;;;;;;;14.68;8.95;;;15.10;99.90;;;;;;5065155;28;20079;-70
2022/10/05 04:38:03;;;;;;;16.77;10.63;;;15.20;99.90;;;;;;5060897;28;20105;-70
2022/10/05 04:40:39;;;;;;;13.80;9.63;;;15.20;99.90;;;;;;5059166;28;20089;-70
2022/10/05 04:43:31;;;;;;;10.98;8.85;;;15.20;99.90;;;;;;5061671;28;20528;-70
2022/10/05 04:46:44;;;;;;;12.38;9.05;;;15.20;99.90;;;;;;5065679;28;20048;-70
2022/10/05 04:49:20;;;;;;;;;;;15.20;99.90;;;;;;5063190;28;20068;-70
2022/10/05 04:52:06;;;;;;;11.55;8.05;;;15.20;99.90;;;;;;5066195;28;19912;-70
2022/10/05 04:55:02;;;;;;;10.50;7.65;;;15.30;99.90;;;;;;5063881;28;20505;-70
2022/10/05 04:57:45;;;;;;;13.23;8.38;;;15.30;99.90;;;;;;5058876;28;20024;-70
2022/10/05 05:00:19;;;;;;;10.07;7.70;;;15.20;99.90;;;;;;5064769;28;20063;-70
2022/10/05 05:03:18;;;;;;;10.70;8.13;;;15.20;99.90;;;;;;5068271;28;20074;-70
2022/10/05 05:06:25;;;;;;;14.00;8.35;;;15.20;99.90;;;;;;5065385;28;20396;-71
2022/10/05 05:09:16;;;;;;;9.98;7.18;;;15.30;99.90;;;;;;5065186;28;20120;-70
2022/10/05 05:12:15;;;;;;;9.43;6.88;;;15.20;99.90;;;;;;5064509;28;20067;-70
2022/10/05 05:15:02;;;;;;;10.70;7.72;;;15.30;99.90;;;;;;5067902;28;20066;-70
2022/10/05 05:18:01;;;;;;;10.13;7.22;;;15.30;99.90;;;;;;5068596;28;20025;-70
2022/10/05 05:20:32;;;;;;;9.20;6.97;;;15.30;99.90;;;;;;5072311;28;20020;-70
2022/10/05 05:23:19;;;;;;;9.98;6.80;;;15.30;99.90;;;;;;5070317;28;20492;-70
2022/10/05 05:26:26;;;;;;;11.15;7.47;;;15.40;99.90;;;;;;5066967;28;20032;-70
2022/10/05 05:29:30;;;;;;;11.02;7.13;;;15.40;99.90;;;;;;5058799;28;20477;-70
2022/10/05 05:32:11;;;;;;;10.90;7.30;;;15.40;99.90;;;;;;5066485;28;20481;-70
2022/10/05 05:35:25;;;;;;;9.00;6.70;;;15.40;99.90;;;;;;5067765;28;20515;-72
2022/10/05 05:38:00;;;;;;;7.70;6.38;;;15.40;99.90;;;;;;5065884;28;20076;-70
2022/10/05 05:40:29;;;;;;;9.38;6.93;;;15.50;99.90;;;;;;5062655;28;20025;-70
2022/10/05 05:43:25;;;;;;;8.02;6.97;;;15.40;99.90;;;;;;5065655;28;20017;-70
2022/10/05 05:46:03;;;;;;;10.40;7.07;;;15.40;99.90;;;;;;5062027;28;20071;-70
2022/10/05 05:48:44;;;;;;;8.43;6.45;;;15.40;99.90;;;;;;5063736;28;20037;-70
2022/10/05 05:51:33;;;;;;;11.25;6.20;;;15.40;99.90;;;;;;5058786;28;20424;-70
2022/10/05 05:54:10;;;;;;;8.15;5.90;;;15.40;99.90;;;;;;5063234;28;20036;-70
2022/10/05 05:56:45;;;;;;;9.15;5.75;;;15.40;99.90;;;;;;5068579;28;20559;-70
2022/10/05 05:59:29;;;;;;;10.93;7.03;;;15.40;99.90;;;;;;5063377;28;20131;-70
2022/10/05 06:02:04;;;;;;;11.23;7.57;;;15.50;99.90;;;;;;5066747;28;20089;-70
2022/10/05 06:04:45;;;;;;;8.10;6.22;;;15.30;99.90;;;;;;5064223;28;20029;-71
2022/10/05 06:07:18;;;;;;;6.93;6.22;;;15.40;99.90;;;;;;5074026;28;20369;-72
2022/10/05 06:09:52;;;;;;;7.40;6.22;;;15.40;99.90;;;;;;5072196;28;20020;-72
2022/10/05 06:12:31;;;;;;;7.07;5.85;;;15.40;99.90;;;;;;5059683;28;20095;-70
2022/10/05 06:15:12;;;;;;;7.65;6.55;;;15.40;99.90;;;;;;5054035;28;20025;-71
2022/10/05 06:17:46;;;;;;;7.70;6.60;;;15.40;99.90;;;;;;5054432;28;20037;-71
2022/10/05 06:20:26;;;;;;;7.30;5.85;;;15.40;99.90;;;;;;5054708;28;20053;-71
2022/10/05 06:22:54;;;;;;;14.55;7.28;;;15.40;99.90;;;;;;5070065;28;20039;-72
2022/10/05 06:25:28;;;;;;;7.85;5.90;;;15.50;99.90;;;;;;5073996;28;20090;-71
2022/10/05 06:28:14;;;;;;;10.98;6.10;;;15.40;99.90;;;;;;5072219;28;20039;-71
2022/10/05 06:31:03;;;;;;;6.53;5.30;;;15.40;99.90;;;;;;5074197;28;20377;-70
2022/10/05 06:33:44;;;;;;;5.63;5.13;;;15.30;99.90;;;;;;5053083;28;20071;-70
2022/10/05 06:36:19;;;;;;;7.28;5.40;;;15.40;99.90;;;;;;5053261;28;20021;-70
2022/10/05 06:38:57;;;;;;;8.38;5.22;;;15.40;99.90;;;;;;5068917;28;20052;-70
2022/10/05 06:41:28;;;;;;;5.82;4.95;;;15.40;99.90;;;;;;5067934;28;20051;-70
2022/10/05 06:43:57;;;;;;;6.60;5.28;;;15.50;99.90;;;;;;5073888;28;20469;-70
2022/10/05 06:46:30;;;;;;;8.07;5.05;;;15.40;99.90;;;;;;5071568;28;20487;-71
2022/10/05 06:49:31;;;;;;;6.47;4.93;;;15.40;99.90;;;;;;5072573;28;20046;-71
2022/10/05 06:52:19;;;;;;;11.00;5.93;;;15.50;99.90;;;;;;5073532;28;20024;-71
2022/10/05 06:55:03;;;;;;;8.18;4.85;;;15.50;99.90;;;;;;5069757;28;20068;-70
2022/10/05 06:58:02;;;;;;;10.97;4.90;;;15.50;99.90;;;;;;5064026;28;20380;-68
2022/10/05 07:00:41;;;;;;;10.05;5.43;;;15.60;99.90;;;;;;5070054;28;20029;-68
2022/10/05 07:03:45;;;;;;;7.85;5.00;;;15.50;99.90;;;;;;5072413;28;20099;-68
2022/10/05 07:06:19;;;;;;;7.13;4.88;;;15.60;99.90;;;;;;5072296;28;20431;-68
2022/10/05 07:08:58;;;;;;;7.95;5.20;;;15.60;99.90;;;;;;5074246;28;20070;-68
2022/10/05 07:11:35;;;;;;;5.10;4.60;;;15.70;99.90;;;;;;5070946;28;20415;-68
2022/10/05 07:14:15;;;;;;;7.90;5.18;;;15.70;99.90;;;;;;5062903;28;20045;-68
2022/10/05 07:17:00;;;;;;;8.57;4.97;;;15.70;99.90;;;;;;5072613;28;20032;-68
2022/10/05 07:19:39;;;;;;;6.35;4.70;;;15.70;99.90;;;;;;5058345;28;20048;-68
2022/10/05 07:22:23;;;;;;;7.30;4.70;;;15.70;99.90;;;;;;5062098;28;20021;-69
2022/10/05 07:25:15;;;;;;;6.95;4.80;;;15.80;99.90;;;;;;5073452;28;20091;-68
2022/10/05 07:27:58;;;;;;;5.70;4.75;;;15.80;99.90;;;;;;5067057;28;20041;-68
2022/10/05 07:30:24;;;;;;;6.43;4.47;;;15.90;99.90;;;;;;5064841;28;20027;-68
2022/10/05 07:32:58;;;;;;;8.50;4.55;;;16.00;99.90;;;;;;5072832;28;20111;-70
2022/10/05 07:39:00;;;;;;;8.15;4.28;;;16.00;99.90;;;;;;5044968;28;20413;-69
2022/10/05 07:41:34;;;;;;;5.68;4.20;;;16.10;99.90;;;;;;5061001;28;20029;-70
2022/10/05 07:44:23;;;;;;;6.47;4.00;;;16.10;99.90;;;;;;5079728;28;20060;-71
2022/10/05 07:47:09;;;;;;;6.47;4.28;;;16.10;99.90;;;;;;5063465;28;20036;-70
2022/10/05 07:49:50;;;;;;;6.65;4.03;;;16.20;99.90;;;;;;5072928;28;20028;-70
2022/10/05 07:52:26;;;;;;;5.85;4.43;;;16.20;99.90;;;;;;5064941;28;20130;-70
2022/10/05 07:55:14;;;;;;;10.80;4.10;;;16.20;99.90;;;;;;5071781;28;20025;-70
2022/10/05 07:57:58;;;;;;;7.35;4.00;;;16.30;99.90;;;;;;5063076;28;20045;-70
2022/10/05 08:00:39;;;;;;;4.95;4.30;;;16.40;99.90;;;;;;5077572;28;20031;-69
2022/10/05 08:03:13;;;;;;;6.80;3.42;;;16.40;99.90;;;;;;5074063;28;20028;-70
2022/10/05 08:05:41;;;;;;;10.18;4.30;;;16.40;99.90;;;;;;5082728;28;20029;-70
2022/10/05 08:08:09;;;;;;;7.43;3.95;;;16.40;99.90;;;;;;5080280;28;20122;-70
2022/10/05 08:11:04;;;;;;;8.48;3.88;;;16.50;99.90;;;;;;5075368;28;20674;-70
2022/10/05 08:13:39;;;;;;;7.68;4.40;;;16.40;99.90;;;;;;5064928;28;20204;-70
2022/10/05 08:16:13;;;;;;;5.55;4.03;;;16.60;99.90;;;;;;5066153;28;20016;-70
2022/10/05 08:18:45;;;;;;;7.05;3.55;;;16.60;99.90;;;;;;5072027;28;20033;-70
2022/10/05 08:21:15;;;;;;;4.30;3.60;;;16.60;99.90;;;;;;5067917;28;20024;-70
2022/10/05 08:23:43;;;;;;;7.82;3.65;;;16.60;99.90;;;;;;5070880;28;20028;-70
2022/10/05 08:26:42;;;;;;;5.25;3.65;;;16.70;99.90;;;;;;5075487;28;20027;-70
2022/10/05 08:29:09;;;;;;;3.90;3.58;;;16.80;99.90;;;;;;5085505;28;20036;-69
2022/10/05 08:31:37;;;;;;;6.15;4.13;;;16.80;99.90;;;;;;5051470;28;20040;-69
2022/10/05 08:34:24;;;;;;;4.72;3.45;;;16.90;99.90;;;;;;5067644;28;20118;-69
2022/10/05 08:37:02;;;;;;;7.03;3.72;;;16.90;99.90;;;;;;5063253;28;20025;-70
2022/10/05 08:39:39;;;;;;;3.63;3.03;;;17.00;99.90;;;;;;5060338;28;20396;-70
2022/10/05 08:42:23;;;;;;;4.10;3.67;;;17.00;99.90;;;;;;5081142;28;20107;-70
2022/10/05 08:45:09;;;;;;;5.50;3.80;;;17.00;99.90;;;;;;5072505;28;20049;-70
2022/10/05 08:47:53;;;;;;;4.05;3.40;;;17.10;99.90;;;;;;5058756;28;20037;-70
2022/10/05 08:50:39;;;;;;;6.40;4.03;;;17.00;99.90;;;;;;5083081;28;20047;-70
2022/10/05 08:53:14;;;;;;;11.50;3.75;;;17.10;99.90;;;;;;5072091;28;20064;-70
2022/10/05 08:55:45;;;;;;;4.22;3.55;;;17.20;99.90;;;;;;5084141;28;20039;-70
2022/10/05 08:58:25;;;;;;;4.70;4.05;;;17.20;99.90;;;;;;5081346;28;20333;-70
2022/10/05 09:01:02;;;;;;;3.95;3.58;;;17.30;99.90;;;;;;5073666;28;20036;-70
2022/10/05 09:03:48;;;;;;;10.63;4.07;;;17.30;99.90;;;;;;5059955;28;20145;-70
2022/10/05 09:06:44;;;;;;;8.65;3.53;;;17.40;99.90;;;;;;5059458;28;20500;-70
2022/10/05 09:09:21;;;;;;;5.20;3.25;;;17.40;99.90;;;;;;5086140;28;20380;-70
2022/10/05 09:12:31;;;;;;;6.90;4.00;;;17.50;99.90;;;;;;5073012;28;20024;-70
2022/10/05 09:15:27;;;;;;;5.22;3.33;;;17.50;99.90;;;;;;5070828;28;20085;-70
2022/10/05 09:18:10;;;;;;;7.80;3.55;;;17.50;99.90;;;;;;5067542;28;20104;-70
2022/10/05 09:21:02;;;;;;;3.65;2.80;;;17.50;99.90;;;;;;5076286;28;20048;-70
2022/10/05 09:23:43;;;;;;;4.72;3.53;;;17.60;99.90;;;;;;5061790;28;20021;-70
2022/10/05 09:26:40;;;;;;;3.60;2.95;;;17.70;99.90;;;;;;5068684;28;20021;-69
2022/10/05 09:29:36;;;;;;;4.85;2.85;;;17.70;99.90;;;;;;5064203;28;20025;-69
2022/10/05 09:32:26;;;;;;;8.32;3.03;;;17.70;99.90;;;;;;5064291;28;20052;-70
2022/10/05 09:34:54;;;;;;;3.08;2.78;;;17.80;99.90;;;;;;5063711;28;20473;-70
2022/10/05 09:37:43;;;;;;;5.97;2.90;;;17.80;99.90;;;;;;5057986;28;20038;-71
2022/10/05 09:40:20;;;;;;;2.85;2.60;;;17.90;99.90;;;;;;5080188;28;20029;-70
2022/10/05 09:43:27;;;;;;;4.88;3.13;;;18.00;99.90;;;;;;5081512;28;20020;-70
2022/10/05 09:45:58;;;;;;;4.25;2.83;;;18.00;99.90;;;;;;5070038;28;20038;-70
2022/10/05 09:48:42;;;;;;;3.92;3.13;;;18.10;99.90;;;;;;5061746;28;20063;-70
2022/10/05 09:51:29;;;;;;;9.02;2.63;;;18.20;99.90;;;;;;5088409;28;20386;-70
2022/10/05 09:53:57;;;;;;;6.15;2.83;;;18.20;99.90;;;;;;5081903;28;20016;-70
2022/10/05 09:56:35;;;;;;;2.97;2.65;;;18.20;99.90;;;;;;5080102;28;20508;-69
2022/10/05 09:59:33;;;;;;;3.00;2.70;;;18.20;99.90;;;;;;5090222;28;20032;-70
2022/10/05 10:02:13;;;;;;;5.32;2.78;;;18.40;99.90;;;;;;5069581;28;20025;-69
2022/10/05 10:05:12;;;;;;;6.07;2.47;;;18.40;99.90;;;;;;5087474;28;20406;-70
2022/10/05 10:08:08;;;;;;;6.00;2.35;;;18.50;99.90;;;;;;5076501;28;20036;-69
2022/10/05 10:10:58;;;;;;;5.05;3.13;;;18.50;99.90;;;;;;5082327;28;20522;-70
2022/10/05 10:13:52;;;;;;;56.08;4.65;;;18.60;99.90;;;;;;5064998;28;20531;-70
2022/10/05 10:16:42;;;;;;;5.10;2.47;;;18.60;99.90;;;;;;5080225;28;20039;-69
2022/10/05 10:19:36;;;;;;;4.22;2.30;;;18.70;99.90;;;;;;5090665;28;20037;-69
2022/10/05 10:22:13;;;;;;;4.40;2.40;;;18.80;99.90;;;;;;5081815;28;20044;-70
2022/10/05 10:24:48;;;;;;;2.75;2.00;;;18.90;99.90;;;;;;5079361;28;20021;-69
2022/10/05 10:27:37;;;;;;;4.78;2.58;;;18.90;99.90;;;;;;5066827;28;20038;-70
2022/10/05 10:30:24;;;;;;;2.35;2.15;;;19.00;99.90;;;;;;5083401;28;20074;-69
2022/10/05 10:32:53;;;;;;;7.88;2.58;;;19.10;99.90;;;;;;5075407;28;20074;-69
2022/10/05 10:35:29;;;;;;;3.58;2.35;;;19.20;99.90;;;;;;5061002;28;20026;-69
2022/10/05 10:37:57;;;;;;;3.83;2.35;;;19.30;99.90;;;;;;5070464;28;20051;-70
2022/10/05 10:40:38;;;;;;;3.97;2.40;;;19.40;99.90;;;;;;5076485;28;20028;-69
2022/10/05 10:43:28;;;;;;;4.22;2.15;;;19.50;99.90;;;;;;5083363;28;20025;-70
2022/10/05 10:46:27;;;;;;;2.33;2.13;;;19.60;99.90;;;;;;5084922;28;20031;-69
2022/10/05 10:49:14;;;;;;;5.82;2.63;;;19.70;99.90;;;;;;5069647;28;20078;-69
2022/10/05 10:52:10;;;;;;;10.52;3.30;;;19.90;99.90;;;;;;5062796;28;20028;-70
2022/10/05 10:54:55;;;;;;;2.63;2.33;;;20.00;99.90;;;;;;5060873;28;20033;-69
2022/10/05 10:57:48;;;;;;;4.35;2.42;;;20.20;99.90;;;;;;5062334;28;20085;-69
2022/10/05 11:00:27;;;;;;;4.40;3.00;;;20.20;99.90;;;;;;5078159;28;20066;-70
2022/10/05 11:02:53;;;;;;;2.72;2.33;;;20.10;99.90;;;;;;5089972;28;20518;-70
2022/10/05 11:05:22;;;;;;;5.43;2.30;;;20.10;99.90;;;;;;5072823;28;20036;-70
2022/10/05 11:08:02;;;;;;;4.75;2.70;;;20.10;99.90;;;;;;5067522;28;20091;-70
2022/10/05 11:10:57;;;;;;;6.15;2.35;;;20.10;99.90;;;;;;5079292;28;20119;-69
2022/10/05 11:13:35;;;;;;;5.60;2.30;;;20.30;99.90;;;;;;5068811;28;20024;-70
2022/10/05 11:16:17;;;;;;;4.30;2.35;;;20.50;99.90;;;;;;5082577;28;20056;-70
2022/10/05 11:19:30;;;;;;;3.85;2.00;;;20.60;99.90;;;;;;5087952;28;20400;-69
2022/10/05 11:22:05;;;;;;;3.33;2.30;;;20.60;99.90;;;;;;5055443;28;20032;-71
2022/10/05 11:24:42;;;;;;;4.30;2.40;;;20.60;99.90;;;;;;5070573;28;20035;-70
2022/10/05 11:27:15;;;;;;;4.85;2.38;;;20.50;99.90;;;;;;5080008;28;20024;-70
2022/10/05 11:30:13;;;;;;;4.00;1.95;;;20.50;99.90;;;;;;5085963;28;20181;-70
2022/10/05 11:33:27;;;;;;;4.40;2.13;;;20.50;99.90;;;;;;5066967;28;20397;-70
2022/10/05 11:36:18;;;;;;;6.28;2.03;;;20.80;99.90;;;;;;5057742;28;20512;-70
2022/10/05 11:39:29;;;;;;;3.20;1.95;;;21.10;99.90;;;;;;5083251;28;20446;-69
2022/10/05 11:42:19;;;;;;;5.88;1.83;;;21.20;99.90;;;;;;5077728;28;20030;-70
2022/10/05 11:45:10;;;;;;;2.28;1.98;;;21.60;99.90;;;;;;5074032;28;20412;-69
2022/10/05 11:47:45;;;;;;;4.40;2.00;;;21.60;99.90;;;;;;5071035;28;20060;-69
2022/10/05 11:50:25;;;;;;;2.38;1.90;;;21.70;99.90;;;;;;5084734;28;20032;-70
2022/10/05 11:53:15;;;;;;;2.03;1.83;;;21.70;99.90;;;;;;5074710;28;20029;-71
2022/10/05 11:55:56;;;;;;;5.18;1.95;;;21.70;99.90;;;;;;5064566;28;20503;-70
2022/10/05 11:58:33;;;;;;;3.03;1.90;;;21.60;99.90;;;;;;5078034;28;20040;-70
2022/10/05 12:01:11;;;;;;;4.85;1.90;;;21.70;99.90;;;;;;5075382;28;20024;-71
2022/10/05 12:03:53;;;;;;;2.20;1.65;;;21.70;99.90;;;;;;5084612;28;20020;-70
2022/10/05 12:06:30;;;;;;;2.97;1.67;;;21.70;99.90;;;;;;5068572;28;20021;-70
2022/10/05 12:09:21;;;;;;;2.00;1.40;;;21.80;99.90;;;;;;5086135;28;20366;-70
2022/10/05 12:11:55;;;;;;;3.50;1.40;;;21.90;99.90;;;;;;5067548;28;20486;-70
2022/10/05 12:14:36;;;;;;;4.28;1.58;;;21.90;99.90;;;;;;5064747;28;20452;-71
2022/10/05 12:17:24;;;;;;;3.50;1.60;;;21.90;99.90;;;;;;5088141;28;20118;-70
2022/10/05 12:20:01;;;;;;;3.70;1.30;;;21.90;99.90;;;;;;5069526;28;20036;-70
2022/10/05 12:22:51;;;;;;;4.45;1.17;;;22.00;99.90;;;;;;5075282;28;20056;-70
2022/10/05 12:25:28;;;;;;;4.97;1.67;;;22.00;99.90;;;;;;5084959;28;20123;-70
2022/10/05 12:27:59;;;;;;;1.90;1.40;;;22.10;99.90;;;;;;5085919;28;20035;-69
2022/10/05 12:30:32;;;;;;;4.15;1.65;;;22.10;99.90;;;;;;5079149;28;20044;-69
2022/10/05 12:33:12;;;;;;;;;;;22.20;99.90;;;;;;5088172;28;20053;-70
2022/10/05 12:36:07;;;;;;;5.28;1.40;;;22.00;99.90;;;;;;5072868;28;19912;-69
2022/10/05 12:38:33;;;;;;;3.70;1.40;;;21.90;99.90;;;;;;5085579;28;20055;-70
2022/10/05 12:41:12;;;;;;;3.45;1.63;;;22.00;99.90;;;;;;5074640;28;20079;-70
2022/10/05 12:44:01;;;;;;;4.90;1.88;;;21.90;99.90;;;;;;5084067;28;20017;-70
2022/10/05 12:46:39;;;;;;;2.00;1.33;;;22.00;99.90;;;;;;5084584;28;20077;-69
2022/10/05 12:49:11;;;;;;;4.57;1.67;;;22.00;99.90;;;;;;5073953;28;20017;-70
2022/10/05 12:51:58;;;;;;;2.38;1.40;;;22.00;99.90;;;;;;5053476;28;20454;-69
2022/10/05 12:54:40;;;;;;;3.40;1.65;;;22.00;99.90;;;;;;5075625;28;20021;-69
2022/10/05 12:57:18;;;;;;;1.80;1.70;;;22.10;99.90;;;;;;5072317;28;20074;-70
2022/10/05 12:59:49;;;;;;;2.58;1.60;;;22.10;99.90;;;;;;5084404;28;20029;-69
2022/10/05 13:02:21;;;;;;;2.67;1.58;;;22.10;99.90;;;;;;5082337;28;20047;-71
2022/10/05 13:04:51;;;;;;;3.97;1.50;;;21.90;99.90;;;;;;5074864;28;20036;-70
2022/10/05 13:07:54;;;;;;;4.47;1.40;;;21.90;99.90;;;;;;5066544;28;20020;-70
2022/10/05 13:10:52;;;;;;;3.70;1.45;;;21.90;99.90;;;;;;5087310;28;20032;-70
2022/10/05 13:13:32;;;;;;;2.95;1.33;;;22.00;99.90;;;;;;5074829;28;20380;-69
2022/10/05 13:16:13;;;;;;;5.82;1.52;;;22.00;99.90;;;;;;5071442;28;20484;-70
2022/10/05 13:18:58;;;;;;;2.63;1.50;;;22.00;99.90;;;;;;5087494;28;20464;-70
2022/10/05 13:21:29;;;;;;;4.05;1.30;;;22.00;99.90;;;;;;5063767;28;20110;-69
2022/10/05 13:24:10;;;;;;;5.20;1.33;;;22.00;99.90;;;;;;5076885;28;20457;-70
2022/10/05 13:26:43;;;;;;;1.63;1.33;;;21.90;99.90;;;;;;5065175;28;20033;-69
2022/10/05 13:29:25;;;;;;;3.72;1.75;;;21.90;99.90;;;;;;5090711;28;20145;-70
2022/10/05 13:31:55;;;;;;;1.58;1.30;;;21.90;99.90;;;;;;5081531;28;20028;-69
2022/10/05 13:34:38;;;;;;;3.38;1.70;;;21.80;99.90;;;;;;5073198;28;20024;-70
2022/10/05 13:37:24;;;;;;;3.03;1.42;;;21.70;99.90;;;;;;5059584;28;20021;-69
2022/10/05 13:40:02;;;;;;;1.95;1.60;;;21.60;99.90;;;;;;5086745;28;20047;-69
2022/10/05 13:42:41;;;;;;;4.63;1.35;;;21.70;99.90;;;;;;5084449;28;20032;-69
2022/10/05 13:45:23;;;;;;;3.55;1.63;;;21.70;99.90;;;;;;5075632;28;20408;-69
2022/10/05 13:48:19;;;;;;;3.35;1.30;;;21.70;99.90;;;;;;5065968;28;20025;-69
2022/10/05 13:50:55;;;;;;;1.88;1.77;;;21.80;99.90;;;;;;5067752;28;20028;-69
2022/10/05 13:53:29;;;;;;;3.35;1.60;;;21.90;99.90;;;;;;5064844;28;20028;-69
2022/10/05 13:56:19;;;;;;;6.50;1.50;;;21.80;99.90;;;;;;5067733;28;20047;-70
2022/10/05 13:58:49;;;;;;;6.13;1.60;;;21.70;99.90;;;;;;5063896;28;20110;-69
2022/10/05 14:01:25;;;;;;;2.13;1.70;;;21.60;99.90;;;;;;5064319;28;20393;-69